Saint Ann, Missouri
Current Conditions -  °F | °C
As of 5:51 AM on Sunday 23 Nov 2014 (Local Time) from KSTL Reporting Station
Broken Clouds Broken Clouds  
Wind Chill: 53°   Ceiling: 11000
Heat Index: 53°   Visibility: 10mi
Dew Point: 44°   Wind: 12mph
Humidity: 71%   Direction: 160°SSE
Pressure: 29.74"   Gusts: NA
Location:  38.73°N, 90.38°W
Report Text: KSTL 231151Z 16010KT 10SM BKN110 12/07 A2974 RMK AO2 SLP070 70010 T01170067 10139 20117 56016
Loading
Personal Weather Stations






























Interactive Weather Map New forecast layout! Learn more

10-Day Weather Forecast

Advertisements
Track Severe Weather on mobile